sensor_id;sensor_type;location;lat;lon;timestamp;temperature;humidity
12817;DHT22;6473;51.552;6.716;2023-06-05T00:02:21;14.90;96.30
12817;DHT22;6473;51.552;6.716;2023-06-05T00:04:47;16.40;96.50
12817;DHT22;6473;51.552;6.716;2023-06-05T00:07:14;15.60;96.90
12817;DHT22;6473;51.552;6.716;2023-06-05T00:09:41;14.80;96.80
12817;DHT22;6473;51.552;6.716;2023-06-05T00:12:08;14.80;97.20
12817;DHT22;6473;51.552;6.716;2023-06-05T00:14:35;14.70;98.50
12817;DHT22;6473;51.552;6.716;2023-06-05T00:17:02;14.70;98.70
12817;DHT22;6473;51.552;6.716;2023-06-05T00:19:30;14.70;98.90
12817;DHT22;6473;51.552;6.716;2023-06-05T00:21:57;14.60;99.70
12817;DHT22;6473;51.552;6.716;2023-06-05T00:24:24;14.60;99.90
12817;DHT22;6473;51.552;6.716;2023-06-05T00:26:51;16.60;99.90
12817;DHT22;6473;51.552;6.716;2023-06-05T00:29:18;14.00;99.90
12817;DHT22;6473;51.552;6.716;2023-06-05T00:31:44;14.40;99.90
12817;DHT22;6473;51.552;6.716;2023-06-05T00:34:13;14.40;99.90
12817;DHT22;6473;51.552;6.716;2023-06-05T00:36:41;14.30;99.90
12817;DHT22;6473;51.552;6.716;2023-06-05T00:39:08;14.30;99.90
12817;DHT22;6473;51.552;6.716;2023-06-05T00:41:36;15.20;99.90
12817;DHT22;6473;51.552;6.716;2023-06-05T00:44:07;14.30;99.90
12817;DHT22;6473;51.552;6.716;2023-06-05T00:46:34;14.20;99.90
12817;DHT22;6473;51.552;6.716;2023-06-05T00:49:01;14.10;99.90
12817;DHT22;6473;51.552;6.716;2023-06-05T00:51:28;14.20;99.90
12817;DHT22;6473;51.552;6.716;2023-06-05T00:53:57;14.10;99.90
12817;DHT22;6473;51.552;6.716;2023-06-05T00:56:24;15.20;99.90
12817;DHT22;6473;51.552;6.716;2023-06-05T00:58:52;14.90;99.90
12817;DHT22;6473;51.552;6.716;2023-06-05T01:01:20;14.00;99.90
12817;DHT22;6473;51.552;6.716;2023-06-05T01:03:50;14.00;99.90
12817;DHT22;6473;51.552;6.716;2023-06-05T01:06:18;13.90;99.90
12817;DHT22;6473;51.552;6.716;2023-06-05T01:08:46;13.90;99.90
12817;DHT22;6473;51.552;6.716;2023-06-05T01:11:20;13.80;99.90
12817;DHT22;6473;51.552;6.716;2023-06-05T01:13:55;13.80;99.90
12817;DHT22;6473;51.552;6.716;2023-06-05T01:16:26;13.70;99.90
12817;DHT22;6473;51.552;6.716;2023-06-05T01:18:57;13.70;99.90
12817;DHT22;6473;51.552;6.716;2023-06-05T01:21:28;15.60;99.90
12817;DHT22;6473;51.552;6.716;2023-06-05T01:23:57;13.70;99.90
12817;DHT22;6473;51.552;6.716;2023-06-05T01:26:33;13.80;99.90
12817;DHT22;6473;51.552;6.716;2023-06-05T01:29:06;13.60;99.90
12817;DHT22;6473;51.552;6.716;2023-06-05T01:31:36;14.70;99.90
12817;DHT22;6473;51.552;6.716;2023-06-05T01:34:08;14.90;99.90
12817;DHT22;6473;51.552;6.716;2023-06-05T01:36:38;13.80;99.90
12817;DHT22;6473;51.552;6.716;2023-06-05T01:39:08;13.60;99.90
12817;DHT22;6473;51.552;6.716;2023-06-05T01:41:36;14.30;99.90
12817;DHT22;6473;51.552;6.716;2023-06-05T01:44:04;13.40;99.90
12817;DHT22;6473;51.552;6.716;2023-06-05T01:46:33;13.40;99.90
12817;DHT22;6473;51.552;6.716;2023-06-05T01:49:01;13.40;99.90
12817;DHT22;6473;51.552;6.716;2023-06-05T01:51:28;13.30;99.90
12817;DHT22;6473;51.552;6.716;2023-06-05T01:53:55;13.30;99.90
12817;DHT22;6473;51.552;6.716;2023-06-05T01:56:24;13.20;99.90
12817;DHT22;6473;51.552;6.716;2023-06-05T01:58:53;13.30;99.90
12817;DHT22;6473;51.552;6.716;2023-06-05T02:01:20;15.20;99.90
12817;DHT22;6473;51.552;6.716;2023-06-05T02:03:48;13.20;99.90
12817;DHT22;6473;51.552;6.716;2023-06-05T02:06:16;14.70;99.90
12817;DHT22;6473;51.552;6.716;2023-06-05T02:08:43;13.10;99.90
12817;DHT22;6473;51.552;6.716;2023-06-05T02:11:10;15.40;99.90
12817;DHT22;6473;51.552;6.716;2023-06-05T02:13:39;13.10;99.90
12817;DHT22;6473;51.552;6.716;2023-06-05T02:16:09;13.10;99.90
12817;DHT22;6473;51.552;6.716;2023-06-05T02:18:37;13.00;99.90
12817;DHT22;6473;51.552;6.716;2023-06-05T02:21:04;12.90;99.90
12817;DHT22;6473;51.552;6.716;2023-06-05T02:23:31;14.20;99.90
12817;DHT22;6473;51.552;6.716;2023-06-05T02:25:59;12.90;99.90
12817;DHT22;6473;51.552;6.716;2023-06-05T02:28:26;12.90;99.90
12817;DHT22;6473;51.552;6.716;2023-06-05T02:30:56;12.80;99.90
12817;DHT22;6473;51.552;6.716;2023-06-05T02:33:25;13.90;99.90
12817;DHT22;6473;51.552;6.716;2023-06-05T02:35:51;12.70;99.90
12817;DHT22;6473;51.552;6.716;2023-06-05T02:38:18;12.60;99.90
12817;DHT22;6473;51.552;6.716;2023-06-05T02:40:45;12.50;99.90
12817;DHT22;6473;51.552;6.716;2023-06-05T02:43:12;14.00;99.90
12817;DHT22;6473;51.552;6.716;2023-06-05T02:45:40;12.60;99.90
12817;DHT22;6473;51.552;6.716;2023-06-05T02:48:09;12.60;99.90
12817;DHT22;6473;51.552;6.716;2023-06-05T02:50:36;12.60;99.90
12817;DHT22;6473;51.552;6.716;2023-06-05T02:53:06;14.10;99.90
12817;DHT22;6473;51.552;6.716;2023-06-05T02:55:35;12.50;99.90
12817;DHT22;6473;51.552;6.716;2023-06-05T02:58:08;12.40;99.90
12817;DHT22;6473;51.552;6.716;2023-06-05T03:00:44;12.40;99.90
12817;DHT22;6473;51.552;6.716;2023-06-05T03:03:14;12.40;99.90
12817;DHT22;6473;51.552;6.716;2023-06-05T03:05:43;12.30;99.90
12817;DHT22;6473;51.552;6.716;2023-06-05T03:08:14;11.70;99.90
12817;DHT22;6473;51.552;6.716;2023-06-05T03:10:42;12.70;99.90
12817;DHT22;6473;51.552;6.716;2023-06-05T03:13:09;12.40;99.90
12817;DHT22;6473;51.552;6.716;2023-06-05T03:15:37;12.10;99.90
12817;DHT22;6473;51.552;6.716;2023-06-05T03:18:06;12.20;99.90
12817;DHT22;6473;51.552;6.716;2023-06-05T03:20:38;12.10;99.90
12817;DHT22;6473;51.552;6.716;2023-06-05T03:23:06;12.10;99.90
12817;DHT22;6473;51.552;6.716;2023-06-05T03:25:35;12.10;99.90
12817;DHT22;6473;51.552;6.716;2023-06-05T03:28:02;13.30;99.90
12817;DHT22;6473;51.552;6.716;2023-06-05T03:30:29;12.10;99.90
12817;DHT22;6473;51.552;6.716;2023-06-05T03:32:59;12.00;99.90
12817;DHT22;6473;51.552;6.716;2023-06-05T03:35:28;12.00;99.90
12817;DHT22;6473;51.552;6.716;2023-06-05T03:38:01;12.00;99.90
12817;DHT22;6473;51.552;6.716;2023-06-05T03:40:28;11.90;99.90
12817;DHT22;6473;51.552;6.716;2023-06-05T03:42:55;14.10;99.90
12817;DHT22;6473;51.552;6.716;2023-06-05T03:45:22;12.00;99.90
12817;DHT22;6473;51.552;6.716;2023-06-05T03:47:51;11.80;99.90
12817;DHT22;6473;51.552;6.716;2023-06-05T03:50:20;11.90;99.90
12817;DHT22;6473;51.552;6.716;2023-06-05T03:52:49;11.90;99.90
12817;DHT22;6473;51.552;6.716;2023-06-05T03:55:20;12.10;99.90
12817;DHT22;6473;51.552;6.716;2023-06-05T03:57:46;11.90;99.90
12817;DHT22;6473;51.552;6.716;2023-06-05T04:00:14;13.50;99.90
12817;DHT22;6473;51.552;6.716;2023-06-05T04:02:53;12.00;99.90
12817;DHT22;6473;51.552;6.716;2023-06-05T04:05:22;13.50;99.90
12817;DHT22;6473;51.552;6.716;2023-06-05T04:07:49;12.30;99.90
12817;DHT22;6473;51.552;6.716;2023-06-05T04:10:16;12.20;99.90
12817;DHT22;6473;51.552;6.716;2023-06-05T04:12:44;12.30;99.90
12817;DHT22;6473;51.552;6.716;2023-06-05T04:15:11;12.40;99.90
12817;DHT22;6473;51.552;6.716;2023-06-05T04:17:40;12.00;99.90
12817;DHT22;6473;51.552;6.716;2023-06-05T04:20:10;13.70;99.90
12817;DHT22;6473;51.552;6.716;2023-06-05T04:22:40;12.10;99.90
12817;DHT22;6473;51.552;6.716;2023-06-05T04:25:08;13.60;99.90
12817;DHT22;6473;51.552;6.716;2023-06-05T04:27:37;12.00;99.90
12817;DHT22;6473;51.552;6.716;2023-06-05T04:30:07;12.00;99.90
12817;DHT22;6473;51.552;6.716;2023-06-05T04:32:35;12.00;99.90
12817;DHT22;6473;51.552;6.716;2023-06-05T04:35:04;12.60;99.90
12817;DHT22;6473;51.552;6.716;2023-06-05T04:37:31;12.10;99.90
12817;DHT22;6473;51.552;6.716;2023-06-05T04:39:58;12.20;99.90
12817;DHT22;6473;51.552;6.716;2023-06-05T04:42:25;12.10;99.90
12817;DHT22;6473;51.552;6.716;2023-06-05T04:44:57;12.00;99.90
12817;DHT22;6473;51.552;6.716;2023-06-05T04:47:26;12.10;99.90
12817;DHT22;6473;51.552;6.716;2023-06-05T04:49:53;12.90;99.90
12817;DHT22;6473;51.552;6.716;2023-06-05T04:52:21;12.20;99.90
12817;DHT22;6473;51.552;6.716;2023-06-05T04:54:49;12.30;99.90
12817;DHT22;6473;51.552;6.716;2023-06-05T04:57:17;12.40;99.90
12817;DHT22;6473;51.552;6.716;2023-06-05T04:59:44;12.30;99.90
12817;DHT22;6473;51.552;6.716;2023-06-05T05:02:14;13.20;99.90
12817;DHT22;6473;51.552;6.716;2023-06-05T05:04:44;12.30;99.90
12817;DHT22;6473;51.552;6.716;2023-06-05T05:07:11;14.20;99.90
12817;DHT22;6473;51.552;6.716;2023-06-05T05:09:41;12.80;99.90
12817;DHT22;6473;51.552;6.716;2023-06-05T05:12:08;12.40;99.90
12817;DHT22;6473;51.552;6.716;2023-06-05T05:14:36;13.60;99.90
12817;DHT22;6473;51.552;6.716;2023-06-05T05:17:03;12.60;99.90
12817;DHT22;6473;51.552;6.716;2023-06-05T05:19:31;12.50;99.90
12817;DHT22;6473;51.552;6.716;2023-06-05T05:22:01;12.70;99.90
12817;DHT22;6473;51.552;6.716;2023-06-05T05:24:29;12.70;99.90
12817;DHT22;6473;51.552;6.716;2023-06-05T05:26:56;12.70;99.90
12817;DHT22;6473;51.552;6.716;2023-06-05T05:29:23;12.80;99.90
12817;DHT22;6473;51.552;6.716;2023-06-05T05:31:50;12.90;99.90
12817;DHT22;6473;51.552;6.716;2023-06-05T05:34:17;13.00;99.90
12817;DHT22;6473;51.552;6.716;2023-06-05T05:36:44;13.10;99.90
12817;DHT22;6473;51.552;6.716;2023-06-05T05:39:12;13.20;99.90
12817;DHT22;6473;51.552;6.716;2023-06-05T05:41:39;13.40;99.90
12817;DHT22;6473;51.552;6.716;2023-06-05T05:44:06;13.70;99.90
12817;DHT22;6473;51.552;6.716;2023-06-05T05:46:33;16.50;99.90
12817;DHT22;6473;51.552;6.716;2023-06-05T05:49:00;14.80;99.90
12817;DHT22;6473;51.552;6.716;2023-06-05T05:51:26;15.20;99.90
12817;DHT22;6473;51.552;6.716;2023-06-05T05:53:53;16.80;98.30
12817;DHT22;6473;51.552;6.716;2023-06-05T05:56:22;16.10;94.70
12817;DHT22;6473;51.552;6.716;2023-06-05T05:58:48;18.20;91.90
12817;DHT22;6473;51.552;6.716;2023-06-05T06:01:15;17.20;80.20
12817;DHT22;6473;51.552;6.716;2023-06-05T06:03:42;18.00;69.00
12817;DHT22;6473;51.552;6.716;2023-06-05T06:06:09;17.80;64.80
12817;DHT22;6473;51.552;6.716;2023-06-05T06:08:36;18.30;55.10
12817;DHT22;6473;51.552;6.716;2023-06-05T06:11:03;19.80;46.70
12817;DHT22;6473;51.552;6.716;2023-06-05T06:13:33;18.80;40.10
12817;DHT22;6473;51.552;6.716;2023-06-05T06:16:00;20.60;35.10
12817;DHT22;6473;51.552;6.716;2023-06-05T06:18:27;19.30;30.50
12817;DHT22;6473;51.552;6.716;2023-06-05T06:20:54;19.40;22.90
12817;DHT22;6473;51.552;6.716;2023-06-05T06:23:21;21.00;22.20
12817;DHT22;6473;51.552;6.716;2023-06-05T06:25:48;22.00;18.30
12817;DHT22;6473;51.552;6.716;2023-06-05T06:28:17;20.10;15.10
12817;DHT22;6473;51.552;6.716;2023-06-05T06:30:46;20.50;7.60
12817;DHT22;6473;51.552;6.716;2023-06-05T06:33:13;20.90;1.00
12817;DHT22;6473;51.552;6.716;2023-06-05T06:35:40;21.50;2.50
12817;DHT22;6473;51.552;6.716;2023-06-05T06:38:07;21.40;1.00
12817;DHT22;6473;51.552;6.716;2023-06-05T06:40:34;21.20;1.00
12817;DHT22;6473;51.552;6.716;2023-06-05T06:43:01;22.40;1.00
12817;DHT22;6473;51.552;6.716;2023-06-05T06:45:46;20.80;1.00
12817;DHT22;6473;51.552;6.716;2023-06-05T06:48:13;21.40;1.00
12817;DHT22;6473;51.552;6.716;2023-06-05T06:50:40;21.70;1.00
12817;DHT22;6473;51.552;6.716;2023-06-05T06:53:07;21.40;1.00
12817;DHT22;6473;51.552;6.716;2023-06-05T06:55:33;21.50;1.00
12817;DHT22;6473;51.552;6.716;2023-06-05T06:58:00;21.90;1.00
12817;DHT22;6473;51.552;6.716;2023-06-05T07:00:27;22.90;1.00
12817;DHT22;6473;51.552;6.716;2023-06-05T07:02:56;22.30;1.00
12817;DHT22;6473;51.552;6.716;2023-06-05T07:05:22;23.40;1.00
12817;DHT22;6473;51.552;6.716;2023-06-05T07:07:49;22.80;1.00
12817;DHT22;6473;51.552;6.716;2023-06-05T07:10:16;23.20;1.00
12817;DHT22;6473;51.552;6.716;2023-06-05T07:12:43;23.30;1.00
12817;DHT22;6473;51.552;6.716;2023-06-05T07:15:10;23.10;1.00
12817;DHT22;6473;51.552;6.716;2023-06-05T07:17:37;24.10;1.00
12817;DHT22;6473;51.552;6.716;2023-06-05T07:20:07;24.40;1.00
12817;DHT22;6473;51.552;6.716;2023-06-05T07:22:34;24.20;1.00
12817;DHT22;6473;51.552;6.716;2023-06-05T07:25:01;25.00;1.00
12817;DHT22;6473;51.552;6.716;2023-06-05T07:27:29;24.60;1.00
12817;DHT22;6473;51.552;6.716;2023-06-05T07:29:56;24.30;1.00
12817;DHT22;6473;51.552;6.716;2023-06-05T07:32:23;24.10;1.00
12817;DHT22;6473;51.552;6.716;2023-06-05T07:34:51;24.50;1.00
12817;DHT22;6473;51.552;6.716;2023-06-05T07:37:19;24.90;1.00
12817;DHT22;6473;51.552;6.716;2023-06-05T07:39:46;24.90;1.00
12817;DHT22;6473;51.552;6.716;2023-06-05T07:42:15;25.20;1.00
12817;DHT22;6473;51.552;6.716;2023-06-05T07:44:42;27.60;1.00
12817;DHT22;6473;51.552;6.716;2023-06-05T07:47:09;25.30;1.00
12817;DHT22;6473;51.552;6.716;2023-06-05T07:49:36;24.80;1.00
12817;DHT22;6473;51.552;6.716;2023-06-05T07:52:04;25.10;1.00
12817;DHT22;6473;51.552;6.716;2023-06-05T07:54:32;26.20;1.00
12817;DHT22;6473;51.552;6.716;2023-06-05T07:56:59;25.70;1.00
12817;DHT22;6473;51.552;6.716;2023-06-05T07:59:27;25.70;1.00
12817;DHT22;6473;51.552;6.716;2023-06-05T08:01:55;25.50;1.00
12817;DHT22;6473;51.552;6.716;2023-06-05T08:04:22;25.90;1.00
12817;DHT22;6473;51.552;6.716;2023-06-05T08:06:51;25.80;1.00
12817;DHT22;6473;51.552;6.716;2023-06-05T08:09:18;25.90;1.00
12817;DHT22;6473;51.552;6.716;2023-06-05T08:11:46;26.20;1.00
12817;DHT22;6473;51.552;6.716;2023-06-05T08:14:14;25.70;1.00
12817;DHT22;6473;51.552;6.716;2023-06-05T08:16:40;26.10;1.00
12817;DHT22;6473;51.552;6.716;2023-06-05T08:19:07;26.70;1.00
12817;DHT22;6473;51.552;6.716;2023-06-05T08:21:34;27.00;1.00
12817;DHT22;6473;51.552;6.716;2023-06-05T08:24:02;27.10;1.00
12817;DHT22;6473;51.552;6.716;2023-06-05T08:26:29;27.20;1.00
12817;DHT22;6473;51.552;6.716;2023-06-05T08:28:59;27.20;1.00
12817;DHT22;6473;51.552;6.716;2023-06-05T08:31:25;27.00;1.00
12817;DHT22;6473;51.552;6.716;2023-06-05T08:33:52;27.40;1.00
12817;DHT22;6473;51.552;6.716;2023-06-05T08:36:19;26.80;1.00
12817;DHT22;6473;51.552;6.716;2023-06-05T08:38:46;29.40;1.00
12817;DHT22;6473;51.552;6.716;2023-06-05T08:41:14;28.50;1.00
12817;DHT22;6473;51.552;6.716;2023-06-05T08:43:42;28.70;1.00
12817;DHT22;6473;51.552;6.716;2023-06-05T08:46:12;27.60;1.00
12817;DHT22;6473;51.552;6.716;2023-06-05T08:48:42;27.90;1.00
12817;DHT22;6473;51.552;6.716;2023-06-05T08:51:11;27.70;1.00
12817;DHT22;6473;51.552;6.716;2023-06-05T08:53:39;27.10;1.00
12817;DHT22;6473;51.552;6.716;2023-06-05T08:56:08;27.10;1.00
12817;DHT22;6473;51.552;6.716;2023-06-05T08:58:35;27.40;1.00
12817;DHT22;6473;51.552;6.716;2023-06-05T09:01:02;28.20;1.00
12817;DHT22;6473;51.552;6.716;2023-06-05T09:03:32;28.00;1.00
12817;DHT22;6473;51.552;6.716;2023-06-05T09:05:59;28.30;1.00
12817;DHT22;6473;51.552;6.716;2023-06-05T09:08:28;28.20;1.00
12817;DHT22;6473;51.552;6.716;2023-06-05T09:11:20;28.00;1.00
12817;DHT22;6473;51.552;6.716;2023-06-05T09:13:47;27.80;1.00
12817;DHT22;6473;51.552;6.716;2023-06-05T09:16:14;27.70;1.00
12817;DHT22;6473;51.552;6.716;2023-06-05T09:18:53;27.50;1.00
12817;DHT22;6473;51.552;6.716;2023-06-05T09:21:20;27.30;1.00
12817;DHT22;6473;51.552;6.716;2023-06-05T09:23:47;27.60;1.00
12817;DHT22;6473;51.552;6.716;2023-06-05T09:26:14;28.00;1.00
12817;DHT22;6473;51.552;6.716;2023-06-05T09:28:54;28.20;1.00
12817;DHT22;6473;51.552;6.716;2023-06-05T09:31:23;28.20;1.00
12817;DHT22;6473;51.552;6.716;2023-06-05T09:33:57;28.40;1.00
12817;DHT22;6473;51.552;6.716;2023-06-05T09:36:24;28.30;1.00
12817;DHT22;6473;51.552;6.716;2023-06-05T09:38:52;27.90;1.00
12817;DHT22;6473;51.552;6.716;2023-06-05T09:41:20;28.70;1.00
12817;DHT22;6473;51.552;6.716;2023-06-05T09:43:47;28.20;1.00
12817;DHT22;6473;51.552;6.716;2023-06-05T09:46:16;28.10;1.00
12817;DHT22;6473;51.552;6.716;2023-06-05T09:48:45;27.70;1.00
12817;DHT22;6473;51.552;6.716;2023-06-05T09:51:18;28.20;1.00
12817;DHT22;6473;51.552;6.716;2023-06-05T09:53:48;27.20;1.00
12817;DHT22;6473;51.552;6.716;2023-06-05T09:56:17;27.50;1.00
12817;DHT22;6473;51.552;6.716;2023-06-05T09:58:45;27.60;1.00
12817;DHT22;6473;51.552;6.716;2023-06-05T10:01:15;28.00;1.00
12817;DHT22;6473;51.552;6.716;2023-06-05T10:03:48;28.00;1.00
12817;DHT22;6473;51.552;6.716;2023-06-05T10:06:19;28.60;1.00
12817;DHT22;6473;51.552;6.716;2023-06-05T10:08:50;28.90;1.00
12817;DHT22;6473;51.552;6.716;2023-06-05T10:11:19;29.00;1.00
12817;DHT22;6473;51.552;6.716;2023-06-05T10:13:47;28.90;1.00
12817;DHT22;6473;51.552;6.716;2023-06-05T10:16:14;28.90;1.00
12817;DHT22;6473;51.552;6.716;2023-06-05T10:18:41;29.10;1.00
12817;DHT22;6473;51.552;6.716;2023-06-05T10:21:09;29.20;1.00
12817;DHT22;6473;51.552;6.716;2023-06-05T10:23:37;29.30;1.00
12817;DHT22;6473;51.552;6.716;2023-06-05T10:26:21;29.00;1.00
12817;DHT22;6473;51.552;6.716;2023-06-05T10:28:58;29.50;1.00
12817;DHT22;6473;51.552;6.716;2023-06-05T10:31:38;29.50;1.00
12817;DHT22;6473;51.552;6.716;2023-06-05T10:34:23;29.60;1.00
12817;DHT22;6473;51.552;6.716;2023-06-05T10:39:53;30.20;1.00
12817;DHT22;6473;51.552;6.716;2023-06-05T10:42:25;30.70;1.00
12817;DHT22;6473;51.552;6.716;2023-06-05T10:44:53;31.00;1.00
12817;DHT22;6473;51.552;6.716;2023-06-05T10:47:49;30.90;1.00
12817;DHT22;6473;51.552;6.716;2023-06-05T10:50:21;30.80;1.00
12817;DHT22;6473;51.552;6.716;2023-06-05T10:52:51;31.10;1.00
12817;DHT22;6473;51.552;6.716;2023-06-05T10:55:20;31.20;1.00
12817;DHT22;6473;51.552;6.716;2023-06-05T10:58:08;30.40;1.00
12817;DHT22;6473;51.552;6.716;2023-06-05T11:00:37;30.10;1.00
12817;DHT22;6473;51.552;6.716;2023-06-05T11:03:05;29.90;1.00
12817;DHT22;6473;51.552;6.716;2023-06-05T11:05:32;29.50;1.00
12817;DHT22;6473;51.552;6.716;2023-06-05T11:08:15;29.50;1.00
12817;DHT22;6473;51.552;6.716;2023-06-05T11:11:04;29.50;1.00
12817;DHT22;6473;51.552;6.716;2023-06-05T11:13:56;28.90;1.00
12817;DHT22;6473;51.552;6.716;2023-06-05T11:16:31;28.70;1.00
12817;DHT22;6473;51.552;6.716;2023-06-05T11:19:36;28.40;1.00
12817;DHT22;6473;51.552;6.716;2023-06-05T11:22:10;28.60;1.00
12817;DHT22;6473;51.552;6.716;2023-06-05T11:24:37;28.30;1.00
12817;DHT22;6473;51.552;6.716;2023-06-05T11:27:06;28.30;1.00
12817;DHT22;6473;51.552;6.716;2023-06-05T11:29:35;28.50;1.00
12817;DHT22;6473;51.552;6.716;2023-06-05T11:32:11;28.10;1.00
12817;DHT22;6473;51.552;6.716;2023-06-05T11:34:38;28.30;1.00
12817;DHT22;6473;51.552;6.716;2023-06-05T11:37:15;28.40;1.00
12817;DHT22;6473;51.552;6.716;2023-06-05T11:39:43;28.50;1.00
12817;DHT22;6473;51.552;6.716;2023-06-05T11:42:12;28.60;1.00
12817;DHT22;6473;51.552;6.716;2023-06-05T11:44:38;28.70;1.00
12817;DHT22;6473;51.552;6.716;2023-06-05T11:47:06;28.80;1.00
12817;DHT22;6473;51.552;6.716;2023-06-05T11:49:33;28.60;1.00
12817;DHT22;6473;51.552;6.716;2023-06-05T11:52:00;28.70;1.00
12817;DHT22;6473;51.552;6.716;2023-06-05T11:54:30;28.60;1.00
12817;DHT22;6473;51.552;6.716;2023-06-05T11:57:00;28.60;1.00
12817;DHT22;6473;51.552;6.716;2023-06-05T11:59:37;28.70;1.00
12817;DHT22;6473;51.552;6.716;2023-06-05T12:02:05;28.60;1.00
12817;DHT22;6473;51.552;6.716;2023-06-05T12:04:32;28.60;1.00
12817;DHT22;6473;51.552;6.716;2023-06-05T12:07:00;28.80;1.00
12817;DHT22;6473;51.552;6.716;2023-06-05T12:09:28;28.70;1.00
12817;DHT22;6473;51.552;6.716;2023-06-05T12:12:05;28.20;1.00
12817;DHT22;6473;51.552;6.716;2023-06-05T12:14:33;28.40;1.00
12817;DHT22;6473;51.552;6.716;2023-06-05T12:17:08;28.50;1.00
12817;DHT22;6473;51.552;6.716;2023-06-05T12:19:35;28.60;1.00
12817;DHT22;6473;51.552;6.716;2023-06-05T12:22:04;28.50;1.00
12817;DHT22;6473;51.552;6.716;2023-06-05T12:24:31;28.60;1.00
12817;DHT22;6473;51.552;6.716;2023-06-05T12:27:00;28.50;1.00
12817;DHT22;6473;51.552;6.716;2023-06-05T12:29:28;28.80;1.00
12817;DHT22;6473;51.552;6.716;2023-06-05T12:31:56;28.40;1.00
12817;DHT22;6473;51.552;6.716;2023-06-05T12:34:39;28.30;1.00
12817;DHT22;6473;51.552;6.716;2023-06-05T12:37:07;28.60;1.00
12817;DHT22;6473;51.552;6.716;2023-06-05T12:39:34;28.80;1.00
12817;DHT22;6473;51.552;6.716;2023-06-05T12:42:02;28.70;1.00
12817;DHT22;6473;51.552;6.716;2023-06-05T12:44:29;28.70;1.00
12817;DHT22;6473;51.552;6.716;2023-06-05T12:46:56;28.10;1.00
12817;DHT22;6473;51.552;6.716;2023-06-05T12:49:23;27.70;1.00
12817;DHT22;6473;51.552;6.716;2023-06-05T12:51:52;27.50;1.00
12817;DHT22;6473;51.552;6.716;2023-06-05T12:54:20;27.80;1.00
12817;DHT22;6473;51.552;6.716;2023-06-05T12:56:47;27.80;1.00
12817;DHT22;6473;51.552;6.716;2023-06-05T12:59:14;27.90;1.00
12817;DHT22;6473;51.552;6.716;2023-06-05T13:01:42;28.00;1.00
12817;DHT22;6473;51.552;6.716;2023-06-05T13:04:09;27.30;1.00
12817;DHT22;6473;51.552;6.716;2023-06-05T13:06:36;26.80;1.00
12817;DHT22;6473;51.552;6.716;2023-06-05T13:09:04;27.20;1.00
12817;DHT22;6473;51.552;6.716;2023-06-05T13:11:31;27.20;1.00
12817;DHT22;6473;51.552;6.716;2023-06-05T13:13:58;26.40;1.00
12817;DHT22;6473;51.552;6.716;2023-06-05T13:16:26;26.90;1.00
12817;DHT22;6473;51.552;6.716;2023-06-05T13:18:53;27.20;1.00
12817;DHT22;6473;51.552;6.716;2023-06-05T13:21:20;27.50;1.00
12817;DHT22;6473;51.552;6.716;2023-06-05T13:23:47;27.90;1.00
12817;DHT22;6473;51.552;6.716;2023-06-05T13:26:15;28.00;1.00
12817;DHT22;6473;51.552;6.716;2023-06-05T13:28:42;28.00;1.00
12817;DHT22;6473;51.552;6.716;2023-06-05T13:31:10;28.10;1.00
12817;DHT22;6473;51.552;6.716;2023-06-05T13:33:39;28.10;1.00
12817;DHT22;6473;51.552;6.716;2023-06-05T13:36:06;28.00;1.00
12817;DHT22;6473;51.552;6.716;2023-06-05T13:38:34;28.10;1.00
12817;DHT22;6473;51.552;6.716;2023-06-05T13:41:03;27.70;1.00
12817;DHT22;6473;51.552;6.716;2023-06-05T13:43:31;27.30;1.00
12817;DHT22;6473;51.552;6.716;2023-06-05T13:46:00;27.10;1.00
12817;DHT22;6473;51.552;6.716;2023-06-05T13:48:27;26.60;1.00
12817;DHT22;6473;51.552;6.716;2023-06-05T13:50:55;26.50;1.00
12817;DHT22;6473;51.552;6.716;2023-06-05T13:53:23;26.60;1.00
12817;DHT22;6473;51.552;6.716;2023-06-05T13:55:50;26.70;1.00
12817;DHT22;6473;51.552;6.716;2023-06-05T13:58:16;26.60;1.00
12817;DHT22;6473;51.552;6.716;2023-06-05T14:00:45;26.80;1.00
12817;DHT22;6473;51.552;6.716;2023-06-05T14:03:12;27.10;1.00
12817;DHT22;6473;51.552;6.716;2023-06-05T14:05:39;27.30;1.00
12817;DHT22;6473;51.552;6.716;2023-06-05T14:08:06;27.40;1.00
12817;DHT22;6473;51.552;6.716;2023-06-05T14:10:33;28.20;1.00
12817;DHT22;6473;51.552;6.716;2023-06-05T14:13:02;27.90;1.00
12817;DHT22;6473;51.552;6.716;2023-06-05T14:15:30;29.00;1.00
12817;DHT22;6473;51.552;6.716;2023-06-05T14:18:00;27.70;1.00
12817;DHT22;6473;51.552;6.716;2023-06-05T14:20:28;27.70;1.00
12817;DHT22;6473;51.552;6.716;2023-06-05T14:22:56;27.70;1.00
12817;DHT22;6473;51.552;6.716;2023-06-05T14:25:23;27.70;1.00
12817;DHT22;6473;51.552;6.716;2023-06-05T14:27:53;27.70;1.00
12817;DHT22;6473;51.552;6.716;2023-06-05T14:30:20;27.60;1.00
12817;DHT22;6473;51.552;6.716;2023-06-05T14:32:47;27.60;1.00
12817;DHT22;6473;51.552;6.716;2023-06-05T14:35:16;27.50;1.00
12817;DHT22;6473;51.552;6.716;2023-06-05T14:37:45;27.30;1.00
12817;DHT22;6473;51.552;6.716;2023-06-05T14:40:12;27.50;1.00
12817;DHT22;6473;51.552;6.716;2023-06-05T14:42:39;27.40;1.00
12817;DHT22;6473;51.552;6.716;2023-06-05T14:45:07;27.60;1.00
12817;DHT22;6473;51.552;6.716;2023-06-05T14:47:34;27.50;1.00
12817;DHT22;6473;51.552;6.716;2023-06-05T14:50:01;27.40;1.00
12817;DHT22;6473;51.552;6.716;2023-06-05T14:52:30;27.20;1.00
12817;DHT22;6473;51.552;6.716;2023-06-05T14:54:57;27.20;1.00
12817;DHT22;6473;51.552;6.716;2023-06-05T14:57:23;27.10;1.00
12817;DHT22;6473;51.552;6.716;2023-06-05T14:59:50;27.10;1.00
12817;DHT22;6473;51.552;6.716;2023-06-05T15:02:17;27.00;1.00
12817;DHT22;6473;51.552;6.716;2023-06-05T15:07:18;26.00;1.00
12817;DHT22;6473;51.552;6.716;2023-06-05T15:09:50;26.20;1.00
12817;DHT22;6473;51.552;6.716;2023-06-05T15:12:25;26.40;1.00
12817;DHT22;6473;51.552;6.716;2023-06-05T15:14:52;26.50;1.00
12817;DHT22;6473;51.552;6.716;2023-06-05T15:17:26;26.50;1.00
12817;DHT22;6473;51.552;6.716;2023-06-05T15:19:53;26.50;1.00
12817;DHT22;6473;51.552;6.716;2023-06-05T15:25:39;26.60;1.00
12817;DHT22;6473;51.552;6.716;2023-06-05T15:28:13;26.70;1.00
12817;DHT22;6473;51.552;6.716;2023-06-05T15:30:53;26.90;1.00
12817;DHT22;6473;51.552;6.716;2023-06-05T15:33:29;26.90;1.00
12817;DHT22;6473;51.552;6.716;2023-06-05T15:36:24;26.80;1.00
12817;DHT22;6473;51.552;6.716;2023-06-05T15:39:12;26.70;1.00
12817;DHT22;6473;51.552;6.716;2023-06-05T15:42:35;26.50;1.00
12817;DHT22;6473;51.552;6.716;2023-06-05T15:45:12;26.40;1.00
12817;DHT22;6473;51.552;6.716;2023-06-05T15:47:41;26.40;1.00
12817;DHT22;6473;51.552;6.716;2023-06-05T15:50:12;26.30;1.00
12817;DHT22;6473;51.552;6.716;2023-06-05T15:52:43;26.20;1.00
12817;DHT22;6473;51.552;6.716;2023-06-05T15:55:15;26.20;1.00
12817;DHT22;6473;51.552;6.716;2023-06-05T15:57:56;26.10;1.00
12817;DHT22;6473;51.552;6.716;2023-06-05T16:00:26;26.10;1.00
12817;DHT22;6473;51.552;6.716;2023-06-05T16:03:25;26.10;1.00
12817;DHT22;6473;51.552;6.716;2023-06-05T16:05:56;26.20;1.00
12817;DHT22;6473;51.552;6.716;2023-06-05T16:08:29;26.30;1.00
12817;DHT22;6473;51.552;6.716;2023-06-05T16:11:07;26.00;1.00
12817;DHT22;6473;51.552;6.716;2023-06-05T16:13:50;25.90;1.00
12817;DHT22;6473;51.552;6.716;2023-06-05T16:23:42;25.90;1.00
12817;DHT22;6473;51.552;6.716;2023-06-05T16:26:48;25.80;1.00